This demonstration page uses our WeatherBlox Daily Observations layout. Learn more.

38.88101, -77.10428

Hourly Observations for October 23, 2016

Temp ( °F °C ) Dew Point ( °F °C ) Humidity (%) Winds ( mph kmh ) Pressure ( in mb ) Visibility ( mi km ) Precip ( " mm )
12:52 am 00:52 Clear 51 10.6 31 -0.6 46 46 WNW 17 28 29.94 1014 10 16.09344 0 0
1:52 am 01:52 Clear 51 10.6 32 0 48 48 WNW 9 15 29.94 1014 10 16.09344 0 0
2:52 am 02:52 Mostly Clear 50 10 32 0 50 50 W 8 13 29.97 1015 10 16.09344 0 0
3:52 am 03:52 Mostly Clear 49 9.4 34 1.1 56 56 SSW 7 11 29.97 1015 10 16.09344 0 0
4:52 am 04:52 Mostly Clear 48 8.9 34 1.1 58 58 WSW 9 15 30 1016 10 16.09344 0 0
5:52 am 05:52 Mostly Clear 46 7.8 35 1.7 66 66 SW 9 15 30 1016 10 16.09344 0 0
6:52 am 06:52 Mostly Clear 47 8.3 35 1.7 63 63 SSW 12 19 30 1016 10 16.09344 0 0
7:52 am 07:52 Mostly Sunny 46 7.8 37 2.8 71 71 SSW 8 13 30.03 1017 10 16.09344 0 0
8:52 am 08:52 Mostly Sunny 52 11.1 37 2.8 57 57 SSW 9 15 30.06 1018 10 16.09344 0 0
9:52 am 09:52 Sunny 55 12.8 37 2.8 51 51 WSW 12 19 30.06 1018 10 16.09344 0 0
10:52 am 10:52 Partly Cloudy 58 14.4 38 3.3 48 48 SW 13 20 30.06 1018 10 16.09344 0 0
11:52 am 11:52 Mostly Sunny 62 16.7 40 4.4 44 44 WSW 15 24 30.03 1017 10 16.09344 0 0
12:52 pm 12:52 Partly Cloudy 64 17.8 40 4.4 41 41 W 14 22 30.03 1017 10 16.09344 0 0
1:52 pm 13:52 Partly Cloudy 66 18.9 41 5 40 40 W 12 19 30 1016 10 16.09344 0 0
2:52 pm 14:52 Partly Cloudy 68 20 43 6.1 40 40 WSW 13 20 30 1016 10 16.09344 0 0
3:52 pm 15:52 Mostly Cloudy 68 20 43 6.1 40 40 SSW 16 26 29.97 1015 10 16.09344 0 0
4:52 pm 16:52 Mostly Sunny 68 20 44 6.7 42 42 SSW 17 28 29.97 1015 10 16.09344 0 0
5:52 pm 17:52 Mostly Sunny 66 18.9 44 6.7 45 45 SSW 12 19 29.97 1015 10 16.09344 0 0
6:52 pm 18:52 Mostly Clear 63 17.2 46 7.8 54 54 SSW 13 20 29.97 1015 10 16.09344 0 0
7:52 pm 19:52 Clear 60 15.6 48 8.9 65 65 SSW 7 11 29.97 1015 10 16.09344 0 0
8:52 pm 20:52 Clear 58 14.4 49 9.4 72 72 S 7 11 29.97 1015 10 16.09344 0 0
9:52 pm 21:52 Clear 59 15 49 9.4 69 69 SSW 3 6 29.97 1015 10 16.09344 0 0
10:52 pm 22:52 Clear 57 13.9 46 7.8 67 67 SSW 7 11 29.94 1014 10 16.09344 0 0
11:52 pm 23:52 Clear 56 13.3 47 8.3 72 72 SW 7 11 29.94 1014 10 16.09344 0 0

Powered by AerisWeather